Terminal Aerodrome Forecast
Issued by NWS Sioux Falls, SD

Home | Current Version | Previous Version | Graphics & Text | Print | Product List | Glossary On
Versions: 1 2 3 4 5 6 7 8 9 10 11 12 13 14 15 16 17 18
295
FTUS43 KFSD 292320
TAFFSD
TAF
KFSD 292320Z 3000/3024 30014G21KT 6SM -SN OVC010
     FM300900 31013G19KT 6SM -SN OVC008
      TEMPO 3009/3012 3SM -SN
     FM301900 31015G23KT 6SM -SN OVC008
     FM302100 31015G23KT P6SM OVC010=

USA.gov is the U.S. government's official web portal to all federal, state and local government web resources and services.